Rachel, Nevada Weather observations

Data are for observation ending at time listed.
 Day   Time    Ave.   Ave.  Ave.  Vector   Max.   Stn.    Total    Solar   Ave.  
  of    of     Air    Rel.  Wind   Wind    Wind   Baro.  Precip.   Rad.    Soil  
Year   Day     Temp.  Hum.  Speed  Dir.    Gust   Pres.                    Temp. 
2017   (PST)    F      %     mph   deg.    mph     mb.     in.     W/m2     F   
------------------------------------------------------------------------------
  35   21:00   37.7    81    2.9   141      4.8   849.8    0.00       0    40.9
  35   21:10   36.6    81    2.7   153      4.9   849.9    0.00       0    40.9
  35   21:20   36.1    83    1.5   301      3.5   849.9    0.00       0    40.6
  35   21:30   36.0    83    2.2   333      3.7   849.9    0.00       0    40.4
  35   21:40   36.1    83    2.9    57      4.2   850.0    0.00       0    40.4
  35   21:50   36.9    83    1.4    38      3.1   850.0    0.00       0    40.3
  35   22:00   37.7    81    1.1    86      4.5   850.1    0.00       0    40.1
  35   22:10   37.3    82    2.3    65      5.0   850.1    0.00       0    40.0
  35   22:20   38.4    81    0.6     9      1.8   850.3    0.00       0    40.1
  35   22:30   39.0    80    0.3   214      2.0   850.4    0.00       0    40.1
  35   22:40   39.5    78    0.7   243      1.8   850.5    0.00       0    40.0
  35   22:50   39.7    77    0.4   304      1.8   850.5    0.00       0    40.1
  35   23:00   37.8    79    0.5   195      1.9   850.5    0.00       0    40.0
  35   23:10   36.4    84    1.9   180      3.4   850.5    0.00       0    39.8
  35   23:20   36.6    83    1.9   220      3.4   850.5    0.00       0    39.6
  35   23:30   35.3    85    1.8   191      2.6   850.4    0.00       0    39.6
  35   23:40   34.9    86    1.7   171      3.0   850.3    0.00       0    39.3
  35   23:50   34.8    87    1.8   171      2.9   850.1    0.00       0    39.2
  36    0:00   34.7    87    3.8   162      5.5   850.0    0.00       0    39.2
  36    0:10   34.8    88    5.0   161      6.6   849.9    0.00       0    39.0
  36    0:20   34.6    88    3.7   175      5.0   849.9    0.00       0    38.9
  36    0:30   33.3    88    1.8   279      2.8   849.9    0.00       0    38.8
  36    0:40   33.1    89    2.5   241      3.9   849.8    0.00       0    38.7
  36    0:50   32.7    89    3.0   323      3.7   849.6    0.00       0    38.6
  36    1:00   32.8    90    1.1   298      2.7   849.7    0.00       0    38.5
  36    1:10   32.9    90    0.4   305      1.2   849.7    0.00       0    38.4
  36    1:20   32.8    90    1.1   254      2.6   849.6    0.00       0    38.3
  36    1:30   33.0    91    0.0   235      0.1   849.5    0.00       0    38.1
  36    1:40   33.6    91    0.0   256      0.5   849.3    0.00       0    37.9
  36    1:50   32.4    90    0.0     0      0.0   849.4    0.00       0    37.8
  36    2:00   31.7    91    0.1   280      0.9   849.5    0.00       0    37.6
  36    2:10   31.2    91    0.6   167      1.6   849.3    0.00       0    37.4
  36    2:20   31.5    92    0.3   199      1.3   849.2    0.00       0    37.3
  36    2:30   30.1    91    0.3    73      1.4   849.1    0.00       0    37.1
  36    2:40   28.8    92    0.4    81      1.2   849.2    0.00       0    36.9
  36    2:50   28.3    92    0.1   113      1.1   849.0    0.00       0    36.8
  36    3:00   28.2    93    1.0   106      1.6   848.8    0.00       0    36.5
  36    3:10   29.6    93    2.5   103      3.9   848.7    0.00       0    36.3
  36    3:20   29.8    93    2.0    90      2.8   848.6    0.00       0    36.3
  36    3:30   29.9    92    1.9    99      2.4   848.5    0.00       0    36.1
  36    3:40   29.4    93    2.1   124      3.8   848.4    0.00       0    36.2
  36    3:50   29.2    93    3.5   159      4.8   848.3    0.00       0    35.9
  36    4:00   29.6    93    1.6   182      3.4   848.2    0.00       0    36.0
  36    4:10   29.1    93    1.7   257      3.0   848.1    0.00       0    36.0
  36    4:20   27.7    93    2.1   302      2.9   848.1    0.00       0    35.7
  36    4:30   27.4    93    0.8   330      2.9   848.0    0.00       0    35.6
  36    4:40   26.4    93    1.7   311      2.7   848.2    0.00       0    35.4
  36    4:50   26.1    94    1.1   230      2.5   848.3    0.00       0    35.2
  36    5:00   26.4    94    2.0   163      3.4   848.2    0.00       0    35.0
  36    5:10   26.5    95    3.6   126      5.6   847.8    0.00       0    34.7
  36    5:20   26.0    95    4.8   117      5.5   847.9    0.00       0    34.6
  36    5:30   26.2    95    4.9    94      5.5   848.0    0.00       0    34.4
  36    5:40   26.9    96    5.4    97      6.1   847.8    0.00       0    34.4
  36    5:50   26.9    96    5.1   104      5.7   847.7    0.00       0    34.4
  36    6:00   27.0    96    3.0   136      4.4   847.8    0.00       0    34.3
  36    6:10   26.8    95    1.8   162      2.8   847.8    0.00       0    34.4
  36    6:20   27.3    95    1.8   179      3.1   847.9    0.00       0    34.3
  36    6:30   27.6    95    2.2   232      3.4   847.9    0.00       0    34.3
  36    6:40   26.4    94    2.1   232      3.3   848.1    0.00       0    34.3
  36    6:50   27.1    95    0.7   237      1.8   848.1    0.00       5    34.3
  36    7:00   27.7    94    1.2    97      2.9   848.2    0.00       8    34.3
  36    7:10   27.5    94    2.1    17      4.5   848.2    0.00      11    34.1
  36    7:20   26.4    94    3.1   358      4.1   848.3    0.00      18    34.1
  36    7:30   26.6    94    2.0    14      3.4   848.4    0.00      21    34.0
  36    7:40   26.9    94    3.3    80      4.7   848.4    0.00      25    34.1
  36    7:50   27.5    94    1.8    86      2.4   848.4    0.00      31    33.9
  36    8:00   28.3    94    1.4    96      2.6   848.5    0.00      36    34.1
  36    8:10   29.0    94    1.3    74      2.6   848.6    0.00      40    34.1
  36    8:20   29.8    94    0.4   245      2.6   848.7    0.00      44    34.3
  36    8:30   30.2    93    3.0   242      5.6   848.9    0.00      58    34.5
  36    8:40   30.1    92    3.7   234      5.8   849.1    0.00      78    34.4
  36    8:50   30.8    92    4.1   206      5.0   849.1    0.00      98    34.6
  36    9:00   32.1    92    4.1   191      4.7   849.1    0.00     110    34.7
  36    9:10   33.3    91    4.5   201      5.3   849.4    0.00     134    35.1
  36    9:20   34.4    89    3.3   200      4.2   849.5    0.00     130    35.3
  36    9:30   35.5    88    1.8   232      3.2   849.6    0.00     131    35.6
  36    9:40   36.6    86    1.6   273      3.1   849.6    0.00     153    35.8
  36    9:50   36.7    85    1.9   282      3.4   849.7    0.00     194    36.1
  36   10:00   37.8    83    1.3   269      2.6   850.1    0.00     214    36.4
  36   10:10   39.1    79    1.0   295      2.2   850.3    0.00     237    36.8
  36   10:20   39.7    78    1.2   333      2.4   850.4    0.00     321    37.2
  36   10:30   41.8    73    0.9    36      3.7   850.5    0.00     295    37.6
  36   10:40   42.4    71    1.6    28      3.5   850.7    0.00     322    38.0
  36   10:50   43.2    69    1.8    52      5.0   850.8    0.00     374    38.2
  36   11:00   43.5    69    2.4    85      5.3   850.8    0.00     365    38.6
  36   11:10   45.0    67    2.0    42      4.0   850.8    0.00     390    39.0
  36   11:20   46.3    63    1.3    49      4.0   850.9    0.00     435    39.4
  36   11:30   47.5    61    1.9    42      4.1   850.8    0.00     428    39.6
  36   11:40   48.0    60    2.4    58      6.0   850.4    0.00     462    40.0
  36   11:50   48.2    60    3.3    25      6.6   849.9    0.00     365    40.2
  36   12:00   48.7    59    3.2     0      6.5   850.0    0.00     338    40.5
  36   12:10   49.4    58    2.4    26      5.9   849.8    0.00     297    40.8
  36   12:20   50.7    56    2.5   354      6.7   849.6    0.00     366    41.1
  36   12:30   51.7    53    4.1   233     13.4   849.5    0.00     404    41.5
  36   12:40   51.6    52    9.8   154     14.4   849.3    0.00     252    42.2
  36   12:50   51.2    52   11.8   157     16.9   848.8    0.00     208    42.7
  36   13:00   51.2    50   13.0   164     18.3   848.4    0.00     196    42.9
  36   13:10   51.0    50   13.8   156     17.0   848.1    0.00     183    43.2
  36   13:20   51.2    48   15.5   161     19.5   847.7    0.00     244    43.4
  36   13:30   51.1    48   15.3   155     19.1   847.4    0.00     206    43.6
  36   13:40   51.2    49   14.8   165     19.7   847.2    0.00     195    43.8
  36   13:50   51.0    50   16.0   166     19.1   847.0    0.00     167    43.9
  36   14:00   50.9    50   16.4   162     21.5   846.9    0.00     172    44.0
  36   14:10   50.8    50   15.9   166     20.4   846.8    0.00     144    44.2
  36   14:20   50.8    51   16.9   171     20.8   846.7    0.00     151    44.2
  36   14:30   50.8    51   16.6   175     20.2   846.6    0.00     144    44.4
  36   14:40   51.0    52   15.1   169     19.0   846.5    0.00     139    44.4
  36   14:50   50.8    53   15.4   168     18.0   846.5    0.00     102    44.5
  36   15:00   50.4    54   14.3   165     17.8   846.4    0.00      98    44.4
  36   15:10   50.4    53   13.5   172     17.2   846.5    0.00     110    44.5
  36   15:20   50.7    53   13.0   168     20.0   846.5    0.00     124    44.5
  36   15:30   50.3    52   14.7   166     18.6   846.4    0.00      87    44.6
  36   15:40   50.3    53   11.1   176     15.1   846.6    0.00      78    44.6
  36   15:50   50.1    53   10.9   171     13.8   846.6    0.00      59    44.6
  36   16:00   49.8    54   13.1   167     16.6   846.5    0.00      43    44.6
  36   16:10   49.5    55   12.0   164     17.3   846.4    0.00      32    44.5
  36   16:20   49.3    56   12.1   164     15.9   846.4    0.00      26    44.5
  36   16:30   49.1    58   12.7   173     16.7   846.4    0.00      23    44.4
  36   16:40   49.0    58   12.5   176     15.3   846.3    0.00      16    44.2
  36   16:50   48.8    58   12.5   182     16.6   846.3    0.00      14    44.2
  36   17:00   48.8    57   12.4   179     19.1   846.4    0.00       9    44.1
  36   17:10   49.1    56   12.1   181     19.4   846.3    0.00       8    44.0
  36   17:20   48.3    57   12.3   174     17.0   846.2    0.00       3    44.0
  36   17:30   47.8    58   11.2   168     15.1   845.9    0.00       0    43.9
  36   17:40   47.8    58    7.6   170     11.3   845.9    0.00       0    43.8
  36   17:50   48.0    57    4.1   174      7.5   845.9    0.00       0    43.7
  36   18:00   47.9    57    3.2   148      7.2   845.7    0.00       0    43.5
  36   18:10   47.7    58    1.7   320      4.5   845.6    0.00       0    43.5
  36   18:20   47.9    57    1.6   220      5.1   845.5    0.00       0    43.4
  36   18:30   47.5    58    3.1   188      6.6   845.3    0.00       0    43.3
  36   18:40   47.0    60    3.8   208      6.4   845.2    0.00       0    43.2
  36   18:50   47.3    59    3.5   195      9.7   845.0    0.00       0    43.0
  36   19:00   46.7    60    3.8   248      8.2   845.1    0.00       0    43.2
  36   19:10   46.6    61    5.8   173     11.0   845.1    0.00       0    43.0
  36   19:20   46.5    62    6.3   184     15.7   845.1    0.00       0    42.8
  36   19:30   46.5    62   10.9   187     21.3   844.9    0.00       0    42.8
  36   19:40   46.7    61   20.9   179     28.9   844.6    0.00       0    42.8
  36   19:50   46.6    61   21.9   181     29.0   844.5    0.00       0    42.8
  36   20:00   45.9    62   19.9   184     25.6   844.4    0.00       0    42.7
  36   20:10   45.8    62   20.9   180     28.8   844.2    0.00       0    42.6
  36   20:20   45.6    63   20.6   181     28.7   844.2    0.00       0    42.5
  36   20:30   44.6    66   16.4   183     21.9   844.6    0.00       0    42.5
  36   20:40   43.9    68   12.4   172     15.4   844.6    0.00       0    42.2
  36   20:50   43.8    68   12.9   175     17.0   844.3    0.00       0    42.1

Return to St. George, Utah graphs page.


Western Regional Climate Center,wrcc@dri.edu